• Join FlightAware (Why Join?)
  • Login
  • US Flag 
10:54AM EDT


 

Airport Tracker/Info


-or-


 

Live Flight TrackerFlight Track Log ✈ AAL824 ✈ 02-Sep-2013 ✈ KRNO - KDFW

Flight Track Log - Related Links

Times and Time Zones

All times are in EDT time to prevent confusion due to time zone crossing. See the AAL824 flight status page for this flight to view local times or setup timezone preferences in your user account.

Time Position Orientation Groundspeed Altitude Reporting Facility
EDT Latitude Longitude Course Direction KTS MPH feet Rate Location/Type
10:11AM 39.5500 -119.7667 137° Southeast 206 237 5,900  Level Northern Cal TRACON
10:12AM 39.6000 -119.8000 333° Northwest 255 293 7,000 900 Climbing Northern Cal TRACON
10:13AM 39.3403 -119.4208 135° Southeast  Level FlightAware Approximate
10:13AM 39.6536 -119.8208 343° North 284 327 7,400  Level Oakland Center
10:14AM 39.2584 -119.3155 135° Southeast  Level FlightAware Approximate
10:14AM 39.7314 -119.7867 19° North 346 398 10,000  Level Oakland Center
10:15AM 39.1841 -119.2074 137° Southeast  Level FlightAware Approximate
10:15AM 39.7378 -119.6692 86° East 343 395 11,400  Level Oakland Center
10:16AM 39.0994 -119.1059 137° Southeast  Level FlightAware Approximate
10:16AM 39.7019 -119.5397 110° East 375 432 13,200  Level Oakland Center
10:17AM 39.6667 -119.4022 108° East 396 456 15,400 1,980 Climbing Oakland Center
10:18AM 39.6467 -119.2514 100° East 422 486 17,200 1,680 Climbing Oakland Center
10:19AM 39.6228 -119.0992 101° East 428 493 18,900 1,680 Climbing Oakland Center
10:20AM 39.5986 -118.9422 101° East 438 504 20,700 1,680 Climbing Oakland Center
10:21AM 39.5728 -118.7814 102° East 447 514 22,300 1,320 Climbing Oakland Center
10:22AM 39.5467 -118.6142 101° East 461 531 23,500 1,200 Climbing Oakland Center
10:23AM 39.5189 -118.4450 102° East 470 541 24,800 1,200 Climbing Oakland Center
10:24AM 39.4908 -118.2750 102° East 478 550 26,000 1,380 Climbing Oakland Center
10:25AM 39.4625 -118.1061 102° East 479 551 27,700 1,380 Climbing Oakland Center
10:26AM 39.4358 -117.9428 102° East 467 537 28,800 1,260 Climbing Oakland Center
10:27AM 39.4081 -117.7778 102° East 468 539 30,300 1,080 Climbing Oakland Center
10:28AM 39.3800 -117.6175 103° East 460 529 31,000 300 Climbing Oakland Center
10:29AM 39.3525 -117.4550 102° East 462 532 31,000  Level Oakland Center
10:30AM 39.3228 -117.2844 103° East 463 533 31,000  Level Oakland Center
10:31AM 39.2953 -117.1306 103° East 462 532 31,000  Level Oakland Center
10:31AM 39.2725 -116.9989 103° East 462 532 31,000  Level Salt Lake Center
10:32AM 39.2450 -116.8467 103° East 457 526 31,000  Level Salt Lake Center
10:33AM 39.2175 -116.6942 103° East 458 527 31,000  Level Salt Lake Center
10:34AM 39.1858 -116.5144 103° East 460 529 31,000  Level Salt Lake Center
10:35AM 39.1575 -116.3622 103° East 458 527 31,000  Level Salt Lake Center
10:37AM 39.1253 -116.1867 103° East 454 522 31,000  Level Salt Lake Center
10:38AM 39.0953 -116.0269 104° East 454 522 31,000  Level Salt Lake Center
10:39AM 39.0667 -115.8681 103° East 455 524 31,000  Level Salt Lake Center
10:40AM 39.0367 -115.7103 104° East 454 522 31,000  Level Salt Lake Center
10:41AM 39.0064 -115.5511 104° East 458 527 31,000  Level Salt Lake Center
10:42AM 38.9756 -115.3931 104° East 456 525 31,000  Level Salt Lake Center
10:43AM 38.9469 -115.2308 103° East 458 527 31,000  Level Salt Lake Center
10:44AM 38.9153 -115.0728 104° East 459 528 31,000  Level Salt Lake Center
10:45AM 38.8858 -114.9139 103° East 458 527 31,000  Level Salt Lake Center
10:46AM 38.8478 -114.7247 104° East 458 527 31,000  Level Salt Lake Center
10:47AM 38.8181 -114.5656 103° East 458 527 31,000  Level Salt Lake Center
10:48AM 38.7853 -114.4086 105° East 457 526 31,000  Level Salt Lake Center
10:49AM 38.7533 -114.2497 104° East 460 529 31,000  Level Salt Lake Center
10:50AM 38.7214 -114.0925 105° East 458 527 31,000  Level Salt Lake Center
10:51AM 38.6875 -113.9342 105° East 460 529 31,000  Level Salt Lake Center
10:52AM 38.6547 -113.7769 105° East 458 527 31,000  Level Salt Lake Center
10:53AM 38.6156 -113.5894 105° East 456 525 31,000  Level Salt Lake Center
10:54AM 38.5819 -113.4333 105° East 455 524 31,000  Level Salt Lake Center
10:55AM 38.5497 -113.2781 105° East 454 522 31,000  Level Salt Lake Center
10:56AM 38.5158 -113.1206 105° East 456 525 31,000  Level Salt Lake Center
10:57AM 38.4822 -112.9642 105° East 457 526 31,000  Level Salt Lake Center
10:58AM 38.4483 -112.8083 105° East 455 524 31,000  Level Salt Lake Center
10:59AM 38.4144 -112.6514 105° East 457 526 31,000  Level Salt Lake Center
11:00AM 38.3800 -112.4958 106° East 456 525 31,000 360 Level Salt Lake Center
11:01AM 38.3383 -112.3092 106° East 455 524 31,800 720 Climbing Salt Lake Center
11:02AM 38.3050 -112.1550 105° East 453 521 32,500 540 Climbing Salt Lake Center
11:03AM 38.2711 -112.0019 106° East 450 518 33,000 240 Climbing Salt Lake Center
11:04AM 38.2358 -111.8467 106° East 454 522 33,000  Level Salt Lake Center
11:05AM 38.2006 -111.6939 106° East 453 521 33,000  Level Salt Lake Center
11:06AM 38.1667 -111.5397 106° East 452 520 33,000  Level Salt Lake Center
11:07AM 38.1297 -111.3872 107° East 452 520 33,000  Level Salt Lake Center
11:08AM 38.0867 -111.2000 106° East 458 527 33,000  Level Salt Lake Center
11:09AM 38.0503 -111.0447 107° East 459 528 33,000  Level Salt Lake Center
11:10AM 38.0158 -110.9022 107° East 460 529 33,000  Level Salt Lake Center
11:11AM 37.9825 -110.7658 107° East 456 525 33,000  Level Denver Center
11:12AM 37.9389 -110.5839 107° East 452 520 33,000  Level Denver Center
11:13AM 37.9025 -110.4297 107° East 457 526 33,000  Level Denver Center
11:15AM 37.8664 -110.2833 107° East 455 524 33,000  Level Denver Center
11:16AM 37.8244 -110.1119 107° East 456 525 33,000  Level Denver Center
11:17AM 37.7881 -109.9633 107° East 460 529 33,000  Level Denver Center
11:18AM 37.7469 -109.7922 107° East 458 527 33,000  Level Denver Center
11:19AM 37.7100 -109.6469 108° East 455 524 33,000  Level Denver Center
11:20AM 37.6672 -109.4769 108° East 455 524 33,000  Level Denver Center
11:21AM 37.6306 -109.3297 107° East 458 527 33,000  Level Denver Center
11:22AM 37.5872 -109.1614 108° East 452 520 33,000  Level Denver Center
11:23AM 37.5500 -109.0144 108° East 457 526 33,000  Level Denver Center
11:24AM 37.5133 -108.8706 108° East 452 520 33,000  Level Denver Center
11:25AM 37.4694 -108.7003 108° East 456 525 33,000  Level Denver Center
11:26AM 37.4317 -108.5536 108° East 458 527 33,000  Level Denver Center
11:27AM 37.3872 -108.3853 108° East 456 525 33,000  Level Denver Center
11:28AM 37.3492 -108.2397 108° East 457 526 33,000  Level Denver Center
11:29AM 37.3050 -108.0728 108° East 451 519 33,000  Level Denver Center
11:30AM 37.2667 -107.9283 108° East 453 521 33,000  Level Denver Center
11:31AM 37.2211 -107.7614 109° East 453 521 33,000  Level Denver Center
11:32AM 37.1828 -107.6164 108° East 455 524 33,000  Level Denver Center
11:33AM 37.1375 -107.4497 109° East 452 520 33,000  Level Denver Center
11:34AM 37.0986 -107.3078 109° East 449 517 33,000  Level Denver Center
11:35AM 37.0603 -107.1667 109° East 448 516 33,000  Level Denver Center
11:36AM 37.0139 -107.0017 109° East 449 517 33,000  Level Denver Center
11:37AM 36.9742 -106.8586 109° East 452 520 33,000  Level Denver Center
11:38AM 36.9297 -106.6942 109° East 446 513 33,000  Level Denver Center
11:39AM 36.8903 -106.5519 109° East 449 517 33,000  Level Denver Center
11:40AM 36.8425 -106.3861 110° East 453 521 33,000  Level Denver Center
11:41AM 36.8036 -106.2453 109° East 451 519 33,000  Level Denver Center
11:42AM 36.7569 -106.0783 109° East 452 520 33,000  Level Denver Center
11:43AM 36.7142 -105.9353 110° East 450 518 33,000  Level Denver Center
11:44AM 36.6589 -105.7769 113° Southeast 455 524 33,000  Level Denver Center
11:46AM 36.6111 -105.6394 113° Southeast 453 521 33,000 -120 Level Denver Center
11:46AM 36.5792 -105.5494 114° Southeast 456 525 32,900  Descending Albuquerque Center
11:47AM 36.5361 -105.4250 113° Southeast 449 517 33,000  Climbing Albuquerque Center
11:48AM 36.4781 -105.2564 113° Southeast 450 518 33,000  Level Albuquerque Center
11:49AM 36.4272 -105.1119 114° Southeast 451 519 33,000  Level Albuquerque Center
11:50AM 36.3756 -104.9678 114° Southeast 452 520 33,000  Level Albuquerque Center
11:51AM 36.3242 -104.8247 114° Southeast 450 518 33,000  Level Albuquerque Center
11:52AM 36.2731 -104.6808 114° Southeast 451 519 33,000  Level Albuquerque Center
11:53AM 36.2219 -104.5353 113° Southeast 454 522 33,000  Level Albuquerque Center
11:54AM 36.1683 -104.3919 115° Southeast 455 524 33,000  Level Albuquerque Center
11:55AM 36.1156 -104.2472 114° Southeast 455 524 33,000  Level Albuquerque Center
11:56AM 36.0633 -104.1033 114° Southeast 455 524 33,000  Level Albuquerque Center
11:57AM 36.0108 -103.9583 114° Southeast 456 525 33,000  Level Albuquerque Center
11:58AM 35.9583 -103.8133 114° Southeast 457 526 33,000  Level Albuquerque Center
11:59AM 35.9053 -103.6711 115° Southeast 454 522 33,000  Level Albuquerque Center
12:00PM 35.8531 -103.5286 114° Southeast 451 519 33,000  Level Albuquerque Center
12:01PM 35.7989 -103.3842 115° Southeast 456 525 33,000  Level Albuquerque Center
12:02PM 35.7372 -103.2178 115° Southeast 454 522 33,000  Level Albuquerque Center
12:04PM 35.6839 -103.0761 115° Southeast 452 520 33,000  Level Albuquerque Center
12:05PM 35.6292 -102.9331 115° Southeast 456 525 33,000  Level Albuquerque Center
12:06PM 35.5772 -102.7967 115° Southeast 457 526 33,000  Level Albuquerque Center
12:07PM 35.5208 -102.6492 115° Southeast 454 522 33,000  Level Albuquerque Center
12:08PM 35.4708 -102.5161 115° Southeast 456 525 33,000  Level Albuquerque Center
12:09PM 35.4158 -102.3756 116° Southeast 457 526 33,000  Level Albuquerque Center
12:10PM 35.3514 -102.2069 115° Southeast 457 526 33,000  Level Albuquerque Center
12:11PM 35.2969 -102.0683 116° Southeast 455 524 33,000  Level Albuquerque Center
12:12PM 35.2464 -101.9389 116° Southeast 457 526 33,000  Level Albuquerque Center
12:13PM 35.1833 -101.7728 115° Southeast 457 526 33,000  Level Albuquerque Center
12:14PM 35.1322 -101.6450 116° Southeast 458 527 33,000  Level Albuquerque Center
12:15PM 35.0778 -101.5061 116° Southeast 455 524 33,000  Level Albuquerque Center
12:16PM 35.0233 -101.3664 115° Southeast 456 525 33,000  Level Albuquerque Center
12:17PM 34.9614 -101.2133 116° Southeast 458 527 33,000  Level Albuquerque Center
12:18PM 34.9056 -101.0758 116° Southeast 455 524 33,000  Level Albuquerque Center
12:19PM 34.8517 -100.9375 115° Southeast 454 522 33,000  Level Albuquerque Center
12:20PM 34.7842 -100.7722 116° Southeast 456 525 33,000  Level Albuquerque Center
12:21PM 34.7289 -100.6342 116° Southeast 455 524 33,000  Level Albuquerque Center
12:22PM 34.6714 -100.4956 117° Southeast 459 528 33,000  Level Albuquerque Center
12:23PM 34.6147 -100.3575 116° Southeast 457 526 33,000  Level Albuquerque Center
12:24PM 34.5594 -100.2203 116° Southeast 456 525 33,000  Level Albuquerque Center
12:25PM 34.4961 -100.0678 117° Southeast 452 520 33,000  Level Albuquerque Center
12:26PM 34.4397 -99.9292 116° Southeast 457 526 33,000  Level Albuquerque Center
12:27PM 34.3825 -99.7939 117° Southeast 454 522 33,000  Level Albuquerque Center
12:28PM 34.3253 -99.6558 117° Southeast 457 526 33,000 -420 Level Albuquerque Center
12:29PM 34.2675 -99.5189 117° Southeast 456 525 32,200 -1,560 Descending Albuquerque Center
12:30PM 34.1939 -99.3419 117° Southeast 457 526 29,600 -2,100 Descending Fort Worth Center
12:31PM 34.1375 -99.2103 117° Southeast 446 513 27,800 -1,800 Descending Fort Worth Center
12:32PM 34.0831 -99.0761 116° Southeast 446 513 26,000 -1,680 Descending Fort Worth Center
12:33PM 34.0219 -98.9397 118° Southeast 453 521 24,500 -1,020 Descending Fort Worth Center
12:34PM 33.9672 -98.8083 117° Southeast 448 516 24,000 -840 Descending Fort Worth Center
12:35PM 33.9081 -98.6822 119° Southeast 437 503 22,900 -1,500 Descending Fort Worth Center
12:36PM 33.8550 -98.5514 116° Southeast 437 503 21,000 -1,920 Descending Fort Worth Center
12:37PM 33.8061 -98.4383 117° Southeast 431 496 19,100 -1,800 Descending Fort Worth Center
12:38PM 33.7528 -98.3153 118° Southeast 419 482 17,500 -1,680 Descending Fort Worth Center
12:39PM 33.6950 -98.1850 118° Southeast 404 465 15,800 -1,740 Descending Fort Worth Center
12:40PM 33.6456 -98.0722 118° Southeast 392 451 14,100 -1,680 Descending Fort Worth Center
12:41PM 33.6003 -97.9647 117° Southeast 373 429 12,500 -1,440 Descending Fort Worth Center
12:42PM 33.5528 -97.8672 120° Southeast 355 409 11,300 -780 Descending Fort Worth Center
12:43PM 33.5028 -97.7872 127° Southeast 313 360 11,000 -180 Descending Fort Worth Center
12:44PM 33.4447 -97.7172 135° Southeast 297 342 11,000 -780 Level Fort Worth Center
12:45PM 33.3842 -97.6447 135° Southeast 297 342 9,500 -1,500 Descending Fort Worth Center
12:46PM 33.3175 -97.5725 138° Southeast 316 364 8,100 -1,260 Descending Fort Worth Center
12:47PM 33.2403 -97.5400 161° South 304 350 7,000 -1,080 Descending Fort Worth Center
12:48PM 33.1653 -97.5103 162° South 292 336 6,000 -540 Descending Fort Worth Center
12:49PM 33.0900 -97.4803 162° South 287 330 6,000  Level Fort Worth Center
12:50PM 33.0233 -97.4556 163° South 287 330 6,000  Level Fort Worth Center
12:51PM 32.9397 -97.4258 163° South 287 330 6,000  Level Fort Worth Center
12:52PM 32.8731 -97.4011 163° South 287 330 6,000  Level Fort Worth Center
12:53PM 32.7894 -97.3714 163° South 282 325 6,000 -180 Level Fort Worth Center
12:54PM 32.7247 -97.3467 162° South 282 325 5,700 -540 Descending Fort Worth Center
12:55PM 32.6600 -97.3172 159° South 282 325 5,000 -720 Descending Fort Worth Center
12:56PM 32.6142 -97.2358 124° Southeast 268 308 4,300 -660 Descending Fort Worth Center
12:59PM 32.6333 -97.0833 81° East 188 216 3,000 -420 Descending Dallas / Fort Worth TRACON
01:00PM 32.6833 -97.0333 40° Northeast 196 226 3,000  Level Dallas / Fort Worth TRACON
01:01PM 32.7333 -97.0167 16° North 188 216 3,000 -240 Level Dallas / Fort Worth TRACON
01:02PM 32.7833 -97.0167 360° North 174 200 2,500 -720 Descending Dallas / Fort Worth TRACON
01:03PM 32.8333 -97.0167 360° North 147 169 1,500 -840 Descending Dallas / Fort Worth TRACON
01:04PM 32.8667 -97.0167 360° North 141 162 800 -720 Descending Dallas / Fort Worth TRACON